createdAt,value
2023-04-05T00:01:50.168Z,2.43
2023-04-05T00:04:21.052Z,2.79
2023-04-05T00:06:52.982Z,2.95
2023-04-05T00:09:21.745Z,2.29
2023-04-05T00:11:49.888Z,2.11
2023-04-05T00:14:18.000Z,1.89
2023-04-05T00:16:46.349Z,1.67
2023-04-05T00:19:15.363Z,1.44
2023-04-05T00:21:45.192Z,1.42
2023-04-05T00:24:15.480Z,1.61
2023-04-05T00:26:44.991Z,1.57
2023-04-05T00:29:13.085Z,1.46
2023-04-05T00:31:41.165Z,1.44
2023-04-05T00:34:10.318Z,1.62
2023-04-05T00:36:38.397Z,1.57
2023-04-05T00:39:07.817Z,1.57
2023-04-05T00:41:36.784Z,1.45
2023-04-05T00:44:05.806Z,0.95
2023-04-05T00:46:35.241Z,1.41
2023-04-05T00:49:03.810Z,1.08
2023-04-05T00:51:32.065Z,0.97
2023-04-05T00:54:00.696Z,1.04
2023-04-05T00:56:30.208Z,0.89
2023-04-05T00:58:58.518Z,1.01
2023-04-05T01:01:27.847Z,1.17
2023-04-05T01:04:00.238Z,1.17
2023-04-05T01:06:34.745Z,1.02
2023-04-05T01:09:06.525Z,1.18
2023-04-05T01:11:36.602Z,1.15
2023-04-05T01:14:04.652Z,1.25
2023-04-05T01:16:32.730Z,1.38
2023-04-05T01:19:00.740Z,1.31
2023-04-05T01:21:40.832Z,1.34
2023-04-05T01:24:16.221Z,1.14
2023-04-05T01:26:54.558Z,0.98
2023-04-05T01:29:40.104Z,1.07
2023-04-05T01:32:12.681Z,1.15
2023-04-05T01:34:45.580Z,1.16
2023-04-05T01:37:14.283Z,1.83
2023-04-05T01:39:42.606Z,2.04
2023-04-05T01:42:11.245Z,1.34
2023-04-05T01:44:42.959Z,1.74
2023-04-05T01:47:11.128Z,1.35
2023-04-05T01:49:39.270Z,1.01
2023-04-05T01:52:08.381Z,1.18
2023-04-05T01:54:36.765Z,0.92
2023-04-05T01:57:05.386Z,0.52
2023-04-05T01:59:33.493Z,0.75
2023-04-05T02:02:03.025Z,0.85
2023-04-05T02:04:31.095Z,0.67
2023-04-05T02:07:06.174Z,0.53
2023-04-05T02:09:35.219Z,0.78
2023-04-05T02:12:03.256Z,0.76
2023-04-05T02:14:31.323Z,0.79
2023-04-05T02:17:03.089Z,0.92
2023-04-05T02:19:40.752Z,0.77
2023-04-05T02:22:09.224Z,0.81
2023-04-05T02:24:37.276Z,0.82
2023-04-05T02:27:05.919Z,0.68
2023-04-05T02:29:34.754Z,0.66
2023-04-05T02:32:02.972Z,0.58
2023-04-05T02:34:33.606Z,0.55
2023-04-05T02:37:01.977Z,0.14
2023-04-05T02:39:32.070Z,0.08
2023-04-05T02:42:00.129Z,0.32
2023-04-05T02:44:29.391Z,0.54
2023-04-05T02:46:57.485Z,0.39
2023-04-05T02:49:32.431Z,0.27
2023-04-05T02:52:03.652Z,0.37
2023-04-05T02:54:31.937Z,-0.13
2023-04-05T02:57:03.568Z,-0.24
2023-04-05T02:59:40.930Z,-0.26
2023-04-05T03:02:09.801Z,0.07
2023-04-05T03:04:41.054Z,0.06
2023-04-05T03:07:10.367Z,-0.36
2023-04-05T03:09:42.647Z,0.12
2023-04-05T03:12:11.299Z,0.07
2023-04-05T03:14:42.417Z,-0.09
2023-04-05T03:17:14.629Z,-0.12
2023-04-05T03:19:48.235Z,-0.06
2023-04-05T03:22:21.836Z,-0.37
2023-04-05T03:24:49.973Z,-0.18
2023-04-05T03:27:21.928Z,-0.20
2023-04-05T03:30:07.747Z,-0.40
2023-04-05T03:32:40.835Z,-0.32
2023-04-05T03:35:22.863Z,-0.39
2023-04-05T03:37:51.512Z,-0.48
2023-04-05T03:40:20.026Z,-0.47
2023-04-05T03:42:48.767Z,-0.41
2023-04-05T03:45:21.122Z,-0.19
2023-04-05T03:47:52.451Z,-0.18
2023-04-05T03:50:20.559Z,-0.17
2023-04-05T03:52:50.102Z,0.01
2023-04-05T03:55:18.518Z,0.15
2023-04-05T03:57:48.412Z,-0.09
2023-04-05T04:00:31.097Z,-0.26
2023-04-05T04:03:25.997Z,-0.36
2023-04-05T04:05:54.792Z,-0.44
2023-04-05T04:08:24.274Z,-0.24
2023-04-05T04:10:52.304Z,-0.14
2023-04-05T04:13:33.433Z,-0.10
2023-04-05T04:16:19.342Z,-0.34
2023-04-05T04:18:47.426Z,-0.42
2023-04-05T04:21:25.492Z,-0.58
2023-04-05T04:24:33.936Z,-0.61
2023-04-05T04:27:20.820Z,-0.57
2023-04-05T04:30:10.593Z,-0.55
2023-04-05T04:32:53.739Z,-0.35
2023-04-05T04:35:46.744Z,-0.73
2023-04-05T04:38:53.629Z,-0.56
2023-04-05T04:41:44.751Z,-0.64
2023-04-05T04:44:28.165Z,-0.64
2023-04-05T04:47:13.751Z,-0.79
2023-04-05T04:50:03.487Z,-0.61
2023-04-05T04:52:31.512Z,-0.88
2023-04-05T04:55:02.604Z,-0.76
2023-04-05T04:57:32.168Z,-0.74
2023-04-05T05:00:00.276Z,-0.57
2023-04-05T05:02:31.093Z,-0.86
2023-04-05T05:04:59.497Z,-0.66
2023-04-05T05:07:27.588Z,-0.23
2023-04-05T05:09:55.728Z,-0.18
2023-04-05T05:12:23.815Z,-0.32
2023-04-05T05:14:53.187Z,-0.40
2023-04-05T05:17:24.541Z,-0.21
2023-04-05T05:19:54.123Z,-0.35
2023-04-05T05:22:23.297Z,-0.44
2023-04-05T05:24:51.342Z,-0.03
2023-04-05T05:27:19.441Z,-0.35
2023-04-05T05:29:47.477Z,0.20
2023-04-05T05:32:17.027Z,0.11
2023-04-05T05:34:45.484Z,-0.11
2023-04-05T05:37:16.592Z,0.08
2023-04-05T05:39:45.681Z,0.14
2023-04-05T05:42:13.664Z,0.15
2023-04-05T05:44:41.645Z,0.28
2023-04-05T05:47:09.625Z,0.52
2023-04-05T05:49:39.030Z,0.50
2023-04-05T05:52:07.024Z,0.41
2023-04-05T05:54:35.185Z,0.50
2023-04-05T05:57:03.480Z,0.80
2023-04-05T05:59:31.614Z,0.81
2023-04-05T06:01:59.829Z,1.39
2023-04-05T06:04:28.990Z,3.45
2023-04-05T06:06:59.172Z,6.23
2023-04-05T06:09:27.259Z,7.94
2023-04-05T06:11:57.195Z,8.76
2023-04-05T06:14:25.799Z,9.08
2023-04-05T06:16:53.886Z,11.63
2023-04-05T06:19:21.969Z,11.90
2023-04-05T06:21:50.042Z,7.18
2023-04-05T06:24:19.515Z,5.87
2023-04-05T06:26:47.617Z,6.55
2023-04-05T06:29:16.067Z,3.29
2023-04-05T06:31:46.427Z,3.54
2023-04-05T06:34:14.606Z,2.48
2023-04-05T06:36:42.773Z,3.10
2023-04-05T06:39:10.949Z,1.96
2023-04-05T06:41:40.373Z,2.63
2023-04-05T06:44:08.508Z,3.24
2023-04-05T06:46:36.618Z,2.02
2023-04-05T06:49:04.711Z,2.25
2023-04-05T06:51:32.831Z,2.24
2023-04-05T06:54:00.894Z,2.82
2023-04-05T06:56:29.028Z,2.63
2023-04-05T06:58:59.534Z,2.00
2023-04-05T07:01:27.799Z,2.08
2023-04-05T07:03:55.942Z,2.90
2023-04-05T07:06:24.039Z,1.58
2023-04-05T07:08:52.615Z,1.93
2023-04-05T07:11:21.448Z,2.31
2023-04-05T07:13:49.477Z,3.17
2023-04-05T07:16:23.128Z,2.61
2023-04-05T07:18:54.081Z,2.62
2023-04-05T07:21:22.103Z,2.80
2023-04-05T07:23:50.151Z,3.35
2023-04-05T07:26:18.251Z,2.52
2023-04-05T07:28:46.802Z,2.70
2023-04-05T07:31:15.781Z,4.05
2023-04-05T07:33:45.715Z,4.02
2023-04-05T07:36:13.967Z,3.10
2023-04-05T07:38:44.940Z,2.85
2023-04-05T07:41:12.962Z,3.22
2023-04-05T07:43:41.172Z,3.35
2023-04-05T07:46:09.194Z,3.66
2023-04-05T07:48:37.216Z,3.34
2023-04-05T07:51:08.392Z,3.71
2023-04-05T07:53:37.068Z,3.26
2023-04-05T07:56:05.504Z,3.17
2023-04-05T07:58:33.517Z,3.96
2023-04-05T08:01:01.920Z,3.61
2023-04-05T08:03:30.506Z,3.30
2023-04-05T08:05:58.707Z,3.91
2023-04-05T08:08:28.192Z,3.79
2023-04-05T08:10:56.211Z,4.09
2023-04-05T08:13:24.225Z,4.15
2023-04-05T08:15:52.430Z,3.84
2023-04-05T08:18:20.451Z,3.64
2023-04-05T08:20:51.808Z,4.71
2023-04-05T08:23:19.902Z,4.32
2023-04-05T08:25:49.442Z,4.54
2023-04-05T08:28:17.524Z,4.97
2023-04-05T08:30:46.625Z,5.14
2023-04-05T08:33:14.815Z,4.85
2023-04-05T08:35:43.152Z,5.04
2023-04-05T08:38:12.249Z,4.93
2023-04-05T08:40:42.646Z,4.77
2023-04-05T08:43:14.520Z,4.64
2023-04-05T08:45:47.751Z,5.24
2023-04-05T08:48:16.289Z,5.26
2023-04-05T08:50:50.852Z,6.00
2023-04-05T08:53:19.142Z,5.56
2023-04-05T08:55:50.016Z,5.42
2023-04-05T08:58:21.929Z,5.41
2023-04-05T09:00:51.296Z,5.44
2023-04-05T09:03:22.350Z,5.53
2023-04-05T09:05:51.519Z,5.18
2023-04-05T09:08:21.159Z,5.30
2023-04-05T09:10:50.886Z,6.35
2023-04-05T09:13:20.472Z,6.30
2023-04-05T09:15:51.806Z,5.79
2023-04-05T09:18:26.733Z,6.01
2023-04-05T09:20:57.881Z,6.20
2023-04-05T09:23:26.244Z,5.94
2023-04-05T09:25:54.354Z,6.00
2023-04-05T09:28:23.916Z,6.51
2023-04-05T09:30:52.002Z,6.76
2023-04-05T09:33:21.137Z,6.36
2023-04-05T09:35:51.272Z,6.90
2023-04-05T09:38:20.076Z,6.31
2023-04-05T09:40:48.973Z,6.64
2023-04-05T09:43:41.132Z,7.39
2023-04-05T09:46:17.327Z,7.28
2023-04-05T09:48:49.291Z,7.22
2023-04-05T09:51:17.833Z,7.93
2023-04-05T09:53:57.896Z,7.84
2023-04-05T09:56:26.036Z,7.57
2023-04-05T09:58:59.507Z,7.99
2023-04-05T10:01:31.555Z,7.62
2023-04-05T10:04:00.529Z,6.63
2023-04-05T10:06:38.446Z,7.55
2023-04-05T10:09:07.076Z,8.16
2023-04-05T10:11:35.581Z,7.93
2023-04-05T10:14:05.904Z,7.34
2023-04-05T10:16:39.152Z,7.18
2023-04-05T10:19:15.082Z,7.35
2023-04-05T10:21:44.738Z,7.09
2023-04-05T10:24:19.039Z,7.58
2023-04-05T10:26:56.098Z,7.18
2023-04-05T10:29:26.634Z,7.57
2023-04-05T10:32:00.456Z,7.17
2023-04-05T10:34:32.297Z,7.82
2023-04-05T10:37:01.681Z,6.86
2023-04-05T10:39:30.856Z,8.33
2023-04-05T10:42:01.254Z,7.98
2023-04-05T10:44:34.021Z,8.25
2023-04-05T10:47:03.590Z,7.58
2023-04-05T10:49:35.519Z,7.93
2023-04-05T10:52:04.403Z,8.24
2023-04-05T10:54:34.075Z,7.65
2023-04-05T10:57:06.208Z,7.91
2023-04-05T10:59:37.342Z,8.36
2023-04-05T11:02:05.940Z,7.51
2023-04-05T11:04:34.317Z,8.09
2023-04-05T11:07:12.405Z,8.98
2023-04-05T11:09:50.800Z,8.92
2023-04-05T11:12:18.888Z,8.88
2023-04-05T11:14:48.263Z,8.89
2023-04-05T11:17:26.224Z,7.99
2023-04-05T11:20:03.815Z,8.44
2023-04-05T11:22:32.244Z,9.12
2023-04-05T11:25:04.440Z,9.06
2023-04-05T11:27:33.858Z,8.10
2023-04-05T11:30:03.645Z,8.91
2023-04-05T11:32:41.838Z,8.44
2023-04-05T11:35:14.154Z,8.65
2023-04-05T11:37:54.729Z,8.64
2023-04-05T11:40:27.304Z,7.52
2023-04-05T11:43:05.952Z,9.33
2023-04-05T11:45:37.122Z,9.36
2023-04-05T11:48:08.879Z,9.49
2023-04-05T11:50:37.294Z,8.48
2023-04-05T11:53:15.615Z,9.03
2023-04-05T11:55:44.364Z,8.36
2023-04-05T11:58:13.024Z,9.19
2023-04-05T12:00:43.113Z,10.05
2023-04-05T12:03:14.179Z,9.76
2023-04-05T12:05:46.122Z,9.26
2023-04-05T12:08:14.246Z,8.62
2023-04-05T12:10:42.334Z,8.97
2023-04-05T12:13:10.504Z,8.60
2023-04-05T12:15:40.156Z,10.57
2023-04-05T12:18:15.833Z,9.88
2023-04-05T12:20:43.994Z,10.65
2023-04-05T12:23:12.249Z,10.18
2023-04-05T12:25:42.792Z,9.78
2023-04-05T12:28:11.929Z,9.91
2023-04-05T12:30:49.617Z,9.24
2023-04-05T12:33:26.669Z,9.87
2023-04-05T12:35:54.830Z,8.49
2023-04-05T12:38:27.060Z,9.83
2023-04-05T12:41:00.905Z,9.37
2023-04-05T12:43:38.897Z,8.65
2023-04-05T12:46:11.320Z,9.00
2023-04-05T12:48:42.679Z,9.67
2023-04-05T12:51:16.006Z,9.39
2023-04-05T12:53:46.320Z,9.66
2023-04-05T12:56:14.997Z,10.26
2023-04-05T12:58:43.045Z,9.97
2023-04-05T13:01:12.769Z,10.15
2023-04-05T13:03:44.973Z,8.60
2023-04-05T13:06:14.361Z,9.15
2023-04-05T13:08:42.420Z,9.06
2023-04-05T13:11:10.547Z,9.88
2023-04-05T13:13:38.649Z,11.16
2023-04-05T13:16:06.974Z,10.85
2023-04-05T13:18:35.027Z,10.79
2023-04-05T13:21:07.602Z,10.00
2023-04-05T13:23:35.908Z,10.49
2023-04-05T13:26:04.492Z,9.83
2023-04-05T13:28:35.388Z,10.37
2023-04-05T13:31:08.276Z,10.30
2023-04-05T13:33:36.452Z,9.44
2023-04-05T13:36:06.176Z,9.68
2023-04-05T13:38:34.264Z,11.00
2023-04-05T13:41:02.381Z,11.57
2023-04-05T13:43:31.245Z,11.26
2023-04-05T13:45:59.600Z,11.86
2023-04-05T13:48:27.720Z,10.41
2023-04-05T13:50:55.809Z,10.87
2023-04-05T13:53:27.918Z,11.97
2023-04-05T13:55:56.627Z,12.38
2023-04-05T13:58:26.920Z,11.62
2023-04-05T14:00:54.895Z,11.88
2023-04-05T14:03:23.041Z,11.21
2023-04-05T14:05:53.008Z,10.43
2023-04-05T14:08:26.726Z,10.74
2023-04-05T14:10:55.513Z,11.67
2023-04-05T14:13:23.808Z,11.34
2023-04-05T14:15:52.535Z,12.24
2023-04-05T14:18:21.107Z,11.38
2023-04-05T14:20:49.278Z,11.74
2023-04-05T14:23:17.401Z,9.99
2023-04-05T14:25:46.859Z,11.20
2023-04-05T14:28:17.249Z,10.22
2023-04-05T14:30:45.302Z,10.14
2023-04-05T14:33:14.996Z,9.84
2023-04-05T14:35:43.353Z,10.35
2023-04-05T14:38:13.716Z,10.52
2023-04-05T14:40:43.597Z,10.18
2023-04-05T14:43:13.754Z,9.95
2023-04-05T14:45:42.047Z,10.08
2023-04-05T14:48:10.298Z,10.44
2023-04-05T14:50:38.603Z,11.24
2023-04-05T14:53:06.801Z,10.09
2023-04-05T14:55:34.888Z,11.30
2023-04-05T14:58:05.492Z,10.33
2023-04-05T15:00:36.019Z,10.53
2023-04-05T15:03:04.347Z,10.43
2023-04-05T15:05:32.528Z,11.16
2023-04-05T15:08:00.677Z,10.10
2023-04-05T15:10:29.070Z,10.30
2023-04-05T15:12:57.575Z,11.51
2023-04-05T15:15:25.711Z,12.05
2023-04-05T15:17:55.133Z,11.74
2023-04-05T15:20:23.304Z,10.33
2023-04-05T15:22:51.484Z,10.63
2023-04-05T15:25:19.794Z,10.59
2023-04-05T15:27:47.863Z,10.59
2023-04-05T15:30:16.432Z,11.10
2023-04-05T15:32:46.918Z,10.23
2023-04-05T15:35:16.975Z,11.04
2023-04-05T15:37:45.310Z,11.82
2023-04-05T15:40:13.446Z,10.75
2023-04-05T15:42:43.984Z,10.63
2023-04-05T15:45:12.614Z,10.77
2023-04-05T15:47:44.059Z,10.47
2023-04-05T15:50:12.218Z,10.58
2023-04-05T15:52:41.831Z,11.10
2023-04-05T15:55:10.000Z,10.33
2023-04-05T15:57:38.163Z,10.56
2023-04-05T16:00:08.589Z,10.52
2023-04-05T16:02:37.812Z,10.85
2023-04-05T16:05:06.494Z,10.71
2023-04-05T16:07:34.600Z,10.91
2023-04-05T16:10:04.388Z,11.30
2023-04-05T16:12:32.663Z,11.05
2023-04-05T16:15:00.783Z,10.39
2023-04-05T16:17:29.014Z,10.57
2023-04-05T16:19:57.519Z,10.18
2023-04-05T16:22:25.952Z,10.22
2023-04-05T16:24:54.061Z,10.25
2023-04-05T16:27:23.602Z,10.30
2023-04-05T16:29:51.697Z,10.32
2023-04-05T16:32:19.961Z,10.47
2023-04-05T16:34:48.163Z,10.20
2023-04-05T16:37:16.548Z,9.98
2023-04-05T16:39:44.758Z,10.13
2023-04-05T16:42:13.026Z,10.04
2023-04-05T16:44:42.523Z,9.95
2023-04-05T16:47:10.958Z,10.03
2023-04-05T16:49:41.145Z,10.04
2023-04-05T16:52:10.316Z,10.11
2023-04-05T16:54:38.486Z,9.61
2023-04-05T16:57:06.722Z,9.81
2023-04-05T16:59:34.844Z,9.96
2023-04-05T17:02:06.710Z,9.58
2023-04-05T17:04:36.590Z,9.82
2023-04-05T17:07:05.733Z,9.76
2023-04-05T17:09:33.885Z,9.49
2023-04-05T17:12:02.669Z,9.51
2023-04-05T17:14:31.304Z,9.34
2023-04-05T17:16:59.796Z,9.26
2023-04-05T17:19:31.956Z,9.55
2023-04-05T17:22:00.141Z,9.41
2023-04-05T17:24:29.225Z,9.43
2023-04-05T17:26:57.515Z,9.21
2023-04-05T17:29:25.641Z,9.16
2023-04-05T17:31:53.869Z,8.99
2023-04-05T17:34:22.161Z,9.11
2023-04-05T17:36:52.821Z,8.99
2023-04-05T17:39:21.314Z,9.09
2023-04-05T17:41:50.880Z,8.58
2023-04-05T17:44:19.871Z,8.86
2023-04-05T17:46:54.344Z,8.64
2023-04-05T17:49:36.277Z,8.46
2023-04-05T17:52:08.349Z,8.46
2023-04-05T17:54:37.544Z,8.43
2023-04-05T17:57:05.929Z,8.33
2023-04-05T17:59:34.085Z,8.30
2023-04-05T18:02:02.790Z,8.24
2023-04-05T18:04:31.044Z,8.07
2023-04-05T18:07:01.442Z,8.01
2023-04-05T18:09:31.670Z,7.94
2023-04-05T18:12:00.183Z,8.07
2023-04-05T18:14:28.395Z,8.01
2023-04-05T18:16:56.455Z,7.91
2023-04-05T18:19:24.512Z,7.87
2023-04-05T18:21:52.622Z,7.93
2023-04-05T18:24:21.026Z,7.97
2023-04-05T18:26:50.538Z,7.84
2023-04-05T18:29:18.648Z,7.81
2023-04-05T18:31:46.957Z,7.84
2023-04-05T18:34:15.084Z,7.88
2023-04-05T18:36:43.861Z,7.75
2023-04-05T18:39:14.627Z,7.70
2023-04-05T18:41:42.786Z,7.72
2023-04-05T18:44:12.971Z,7.78
2023-04-05T18:46:44.209Z,7.66
2023-04-05T18:49:15.231Z,7.69
2023-04-05T18:51:43.850Z,7.62
2023-04-05T18:54:12.340Z,7.54
2023-04-05T18:56:42.716Z,7.90
2023-04-05T18:59:12.290Z,7.09
2023-04-05T19:01:40.565Z,7.02
2023-04-05T19:04:08.788Z,7.24
2023-04-05T19:06:36.951Z,7.39
2023-04-05T19:09:06.151Z,6.78
2023-04-05T19:11:34.500Z,6.63
2023-04-05T19:14:03.853Z,6.85
2023-04-05T19:16:33.493Z,6.89
2023-04-05T19:19:03.642Z,6.73
2023-04-05T19:21:32.191Z,6.56
2023-04-05T19:24:00.344Z,6.74
2023-04-05T19:26:28.478Z,6.74
2023-04-05T19:28:56.630Z,6.66
2023-04-05T19:31:26.309Z,6.79
2023-04-05T19:33:55.912Z,6.49
2023-04-05T19:36:24.015Z,6.32
2023-04-05T19:38:52.281Z,6.46
2023-04-05T19:41:20.873Z,6.30
2023-04-05T19:43:50.434Z,6.05
2023-04-05T19:46:19.677Z,5.98
2023-04-05T19:48:48.069Z,6.04
2023-04-05T19:51:19.536Z,5.78
2023-04-05T19:53:49.234Z,5.98
2023-04-05T19:56:20.303Z,5.63
2023-04-05T19:58:49.167Z,5.79
2023-04-05T20:01:34.754Z,5.76
2023-04-05T20:04:03.526Z,5.82
2023-04-05T20:06:36.916Z,5.31
2023-04-05T20:09:07.784Z,5.49
2023-04-05T20:11:36.192Z,5.44
2023-04-05T20:14:06.237Z,5.56
2023-04-05T20:16:36.484Z,5.49
2023-04-05T20:19:05.894Z,5.12
2023-04-05T20:21:39.031Z,4.99
2023-04-05T20:24:08.716Z,5.41
2023-04-05T20:26:36.884Z,4.91
2023-04-05T20:29:08.384Z,4.58
2023-04-05T20:31:39.964Z,4.38
2023-04-05T20:34:11.863Z,4.56
2023-04-05T20:36:46.064Z,4.39
2023-04-05T20:39:14.311Z,4.41
2023-04-05T20:41:42.851Z,4.60
2023-04-05T20:44:11.218Z,4.37
2023-04-05T20:46:39.736Z,4.32
2023-04-05T20:49:08.121Z,4.49
2023-04-05T20:51:36.542Z,4.01
2023-04-05T20:54:06.242Z,4.52
2023-04-05T20:56:34.410Z,4.44
2023-04-05T20:59:05.105Z,4.10
2023-04-05T21:01:33.282Z,3.99
2023-04-05T21:04:01.747Z,3.82
2023-04-05T21:06:30.016Z,3.90
2023-04-05T21:08:58.594Z,3.86
2023-04-05T21:11:28.270Z,3.75
2023-04-05T21:13:56.486Z,3.53
2023-04-05T21:16:24.686Z,3.25
2023-04-05T21:18:52.955Z,3.41
2023-04-05T21:21:21.178Z,3.54
2023-04-05T21:23:50.061Z,3.66
2023-04-05T21:26:18.210Z,3.28
2023-04-05T21:28:47.690Z,3.21
2023-04-05T21:31:15.917Z,3.27
2023-04-05T21:33:44.120Z,3.42
2023-04-05T21:36:12.267Z,3.67
2023-04-05T21:38:40.506Z,3.79
2023-04-05T21:41:08.667Z,3.91
2023-04-05T21:43:37.940Z,3.30
2023-04-05T21:46:07.538Z,3.29
2023-04-05T21:48:35.690Z,3.60
2023-04-05T21:51:03.880Z,3.19
2023-04-05T21:53:32.014Z,3.27
2023-04-05T21:56:00.337Z,3.27
2023-04-05T21:58:28.506Z,3.45
2023-04-05T22:02:39.819Z,3.03
2023-04-05T22:05:08.593Z,2.59
2023-04-05T22:07:37.864Z,3.05
2023-04-05T22:10:09.193Z,2.85
2023-04-05T22:12:37.329Z,2.76
2023-04-05T22:15:05.774Z,2.58
2023-04-05T22:17:33.866Z,2.28
2023-04-05T22:20:03.464Z,2.32
2023-04-05T22:22:31.648Z,2.06
2023-04-05T22:25:02.279Z,2.69
2023-04-05T22:27:30.453Z,2.76
2023-04-05T22:30:00.151Z,2.53
2023-04-05T22:32:31.278Z,2.06
2023-04-05T22:34:59.536Z,2.24
2023-04-05T22:37:35.184Z,2.18
2023-04-05T22:40:03.532Z,2.01
2023-04-05T22:42:34.826Z,2.27
2023-04-05T22:45:03.549Z,1.80
2023-04-05T22:47:31.764Z,2.24
2023-04-05T22:49:59.930Z,2.31
2023-04-05T22:52:29.459Z,2.06
2023-04-05T22:54:57.738Z,1.96
2023-04-05T22:57:29.117Z,2.14
2023-04-05T22:59:59.306Z,2.30
2023-04-05T23:02:29.407Z,2.23
2023-04-05T23:04:57.679Z,2.27
2023-04-05T23:07:26.156Z,2.11
2023-04-05T23:09:55.779Z,2.10
2023-04-05T23:12:23.944Z,1.88
2023-04-05T23:14:52.462Z,1.76
2023-04-05T23:17:20.923Z,2.13
2023-04-05T23:19:49.088Z,2.09
2023-04-05T23:22:17.199Z,1.87
2023-04-05T23:24:45.295Z,1.68
2023-04-05T23:27:14.724Z,1.61
2023-04-05T23:29:42.881Z,1.59
2023-04-05T23:32:13.684Z,1.63
2023-04-05T23:34:42.148Z,2.05
2023-04-05T23:37:10.339Z,2.17
2023-04-05T23:39:38.492Z,1.89
2023-04-05T23:42:06.671Z,1.83
2023-04-05T23:44:36.463Z,1.57
2023-04-05T23:47:04.731Z,1.81
2023-04-05T23:49:35.567Z,1.95
2023-04-05T23:52:03.740Z,1.49
2023-04-05T23:54:31.820Z,1.62
2023-04-05T23:57:01.467Z,2.59
2023-04-05T23:59:29.722Z,1.96
